CheckWX is a tool to help pilots better visualize weather data.  It is not intended as a substitute for an official pre-flight weather briefing.

03:07:08 UTC

EGBB TAF
Birmingham International Airport
Birmingham, United Kingdom
TAF EGBB 110452Z 1106/1206 31009KT 9999 SCT040 PROB30 TEMPO 1109/1113 8000 -SHRA PROB30 1200/1206 8000

Jul-11@
06:00 UTC

Jul-11 @ 06:00 UTC

Jul-12@
06:00 UTC

Jul-12 @ 06:00 UTC

TAF EGBB 110452Z 1106/1206 31009KT 9999 SCT040
Wind
  • 310° at 9 KTS
Cloud Levels
  • Scattered at 4,000' AGL

Jul-11@
09:00 UTC

Jul-11 @ 09:00 UTC

Jul-11@
13:00 UTC

Jul-11 @ 13:00 UTC

PROB30 TEMPO 1109/1113 8000 -SHRA

Expired

Conditions
Light Showers, Rain
Cloud Levels

Jul-12@
00:00 UTC

Jul-12 @ 00:00 UTC

Jul-12@
06:00 UTC

Jul-12 @ 06:00 UTC

PROB30 1200/1206 8000

Probable - 30% Likelihood

Probable - 30% Likelihood during this time.

Cloud Levels